Terminal Aerodrome Forecast
Issued by NWS

Home | Current Version | Previous Version | Text Only | Print | Product List | Glossary On
Versions: 1 2 3 4 5 6 7 8 9 10 11 12 13 14 15 16 17
000
FTUS45 KPIH 021700 RRA
TAFSUN
TAF
KSUN 021741Z 0218/0318 32011KT P6SM FEW120 SCT200
     FM021900 13007KT P6SM FEW050 SCT080
     FM030500 32008KT P6SM VCSH SCT080 BKN110=

USA.gov is the U.S. government's official web portal to all federal, state and local government web resources and services.